Time;durP1;ratioP1;P1;durP2;ratioP2;P2;SDS_P1;SDS_P2;PMS_P1;PMS_P2;Temp;Humidity;BMP_temperature;BMP_pressure;BME280_temperature;BME280_humidity;BME280_pressure;Samples;Min_cycle;Max_cycle;Signal;HPM_P1;HPM_P2
2022/08/24 00:00:28;;;;;;;4.65;2.00;;;;;;;19.79;67.10;99704.72;5051100;28;20041;-69
2022/08/24 00:02:55;;;;;;;5.53;1.98;;;;;;;19.73;67.14;99700.75;5051117;28;20049;-68
2022/08/24 00:05:22;;;;;;;5.72;2.80;;;;;;;19.72;67.03;99698.22;5050965;28;20053;-68
2022/08/24 00:07:49;;;;;;;4.75;1.98;;;;;;;19.68;67.06;99704.81;5048759;28;20051;-69
2022/08/24 00:10:17;;;;;;;3.38;1.83;;;;;;;19.67;67.06;99695.09;5049461;28;20063;-68
2022/08/24 00:12:45;;;;;;;4.22;1.90;;;;;;;19.65;66.80;99700.56;5049842;28;20048;-68
2022/08/24 00:15:14;;;;;;;3.88;2.42;;;;;;;19.58;67.61;99702.09;5049615;28;20048;-67
2022/08/24 00:17:41;;;;;;;4.78;1.48;;;;;;;19.47;68.14;99702.19;5047665;28;20106;-69
2022/08/24 00:20:10;;;;;;;2.05;1.65;;;;;;;19.47;68.20;99705.72;5049211;28;20665;-68
2022/08/24 00:22:37;;;;;;;2.40;1.60;;;;;;;19.44;68.26;99705.13;5049300;28;20585;-68
2022/08/24 00:25:05;;;;;;;4.05;1.88;;;;;;;19.40;68.28;99707.22;5048616;28;20454;-68
2022/08/24 00:27:31;;;;;;;3.03;1.70;;;;;;;19.37;68.52;99706.63;5048597;28;20049;-67
2022/08/24 00:30:00;;;;;;;3.00;1.60;;;;;;;19.35;68.66;99703.28;5049303;28;20518;-68
2022/08/24 00:32:28;;;;;;;2.47;1.77;;;;;;;19.29;68.93;99710.81;5049000;28;20056;-68
2022/08/24 00:34:55;;;;;;;5.45;1.60;;;;;;;19.24;69.03;99713.03;5029398;28;20057;-69
2022/08/24 00:37:22;;;;;;;2.28;1.65;;;;;;;19.23;69.19;99718.53;5028615;28;20080;-69
2022/08/24 00:39:48;;;;;;;5.15;1.77;;;;;;;19.18;69.31;99716.25;5042508;28;20044;-67
2022/08/24 00:42:15;;;;;;;3.42;1.92;;;;;;;19.12;69.68;99713.25;5049152;28;20055;-68
2022/08/24 00:44:41;;;;;;;4.97;2.13;;;;;;;19.09;69.71;99711.69;5051403;28;20045;-69
2022/08/24 00:47:16;;;;;;;2.95;1.90;;;;;;;19.10;69.59;99716.09;5048233;28;20548;-69
2022/08/24 00:49:49;;;;;;;4.38;2.22;;;;;;;19.08;69.67;99713.53;5049093;28;20075;-68
2022/08/24 00:52:21;;;;;;;8.27;3.15;;;;;;;19.07;69.72;99716.31;5048835;28;20052;-68
2022/08/24 00:54:52;;;;;;;4.07;1.83;;;;;;;19.02;69.95;99711.38;5048740;28;20051;-68
2022/08/24 00:57:22;;;;;;;2.90;1.77;;;;;;;19.01;69.92;99709.69;5047977;28;20052;-67
2022/08/24 00:59:54;;;;;;;3.10;2.22;;;;;;;19.00;69.59;99702.66;5048571;28;20049;-67
2022/08/24 01:02:26;;;;;;;6.43;1.80;;;;;;;19.00;70.04;99704.47;5049013;28;20053;-67
2022/08/24 01:04:55;;;;;;;5.78;1.60;;;;;;;18.90;70.26;99709.75;5048737;28;20041;-69
2022/08/24 01:07:23;;;;;;;4.80;2.20;;;;;;;18.88;70.26;99711.72;5048148;28;20059;-69
2022/08/24 01:09:51;;;;;;;2.50;1.83;;;;;;;18.88;70.47;99706.38;5048443;28;20049;-68
2022/08/24 01:12:17;;;;;;;2.88;1.80;;;;;;;18.90;70.27;99712.41;5048623;28;20045;-70
2022/08/24 01:14:44;;;;;;;3.47;1.90;;;;;;;18.86;70.40;99705.66;5048738;28;20053;-69
2022/08/24 01:19:58;;;;;;;5.55;2.00;;;;;;;18.81;70.48;99707.88;5048682;28;20056;-69
2022/08/24 01:22:44;;;;;;;3.25;1.95;;;;;;;18.79;70.60;99708.00;5048502;28;20049;-69
2022/08/24 01:25:12;;;;;;;4.47;1.90;;;;;;;18.74;70.89;99701.31;5048086;28;20071;-68
2022/08/24 01:27:41;;;;;;;3.10;1.88;;;;;;;18.72;70.80;99703.28;5047807;28;20059;-68
2022/08/24 01:30:12;;;;;;;2.15;1.63;;;;;;;18.69;70.96;99704.38;5050548;28;20045;-67
2022/08/24 01:32:39;;;;;;;3.67;2.00;;;;;;;18.67;70.92;99712.50;5052182;28;20049;-70
2022/08/24 01:35:07;;;;;;;3.75;2.10;;;;;;;18.64;70.98;99706.59;5052379;28;20045;-66
2022/08/24 01:37:35;;;;;;;4.95;2.15;;;;;;;18.63;71.19;99712.91;5052390;28;20041;-67
2022/08/24 01:40:07;;;;;;;5.70;1.80;;;;;;;18.62;71.45;99708.53;5052872;28;20131;-68
2022/08/24 01:42:35;;;;;;;5.50;2.10;;;;;;;18.63;71.18;99711.09;5053364;28;20071;-69
2022/08/24 01:45:02;;;;;;;4.63;2.15;;;;;;;18.62;71.12;99709.38;5053208;28;20393;-69
2022/08/24 01:47:29;;;;;;;3.42;1.98;;;;;;;18.60;71.46;99710.50;5051686;28;20048;-68
2022/08/24 01:49:55;;;;;;;3.95;1.98;;;;;;;18.60;71.06;99703.31;5052580;28;20052;-68
2022/08/24 01:52:24;;;;;;;3.30;2.10;;;;;;;18.67;70.95;99714.34;5052542;28;20059;-68
2022/08/24 01:54:51;;;;;;;3.00;1.95;;;;;;;18.60;71.44;99710.50;5052990;28;20140;-68
2022/08/24 01:57:19;;;;;;;4.25;1.95;;;;;;;18.57;71.15;99716.94;5052657;28;20044;-68
2022/08/24 01:59:47;;;;;;;3.17;1.77;;;;;;;18.55;71.23;99710.03;5053390;28;20055;-68
2022/08/24 02:02:18;;;;;;;2.45;1.60;;;;;;;18.53;71.52;99715.50;5053824;28;20140;-68
2022/08/24 02:04:45;;;;;;;3.92;2.28;;;;;;;18.48;71.49;99715.03;5053698;28;20147;-68
2022/08/24 02:07:12;;;;;;;2.72;1.88;;;;;;;18.48;71.74;99719.53;5052202;28;20049;-68
2022/08/24 02:09:40;;;;;;;3.42;1.90;;;;;;;18.43;71.80;99726.13;5052156;28;20139;-68
2022/08/24 02:12:07;;;;;;;5.30;2.75;;;;;;;18.41;71.88;99721.84;5051541;28;20098;-69
2022/08/24 02:14:35;;;;;;;2.80;1.90;;;;;;;18.38;71.99;99719.44;5051615;28;20051;-69
2022/08/24 02:17:04;;;;;;;3.60;2.75;;;;;;;18.33;72.06;99718.97;5050935;28;20496;-67
2022/08/24 02:19:31;;;;;;;3.80;1.98;;;;;;;18.30;71.99;99711.22;5051646;28;20055;-69
2022/08/24 02:21:59;;;;;;;3.40;2.20;;;;;;;18.29;72.33;99717.56;5051503;28;20756;-70
2022/08/24 02:24:26;;;;;;;2.78;1.80;;;;;;;18.27;72.49;99714.16;5051453;28;20041;-68
2022/08/24 02:26:52;;;;;;;3.47;1.70;;;;;;;18.26;72.16;99712.44;5050327;28;20048;-70
2022/08/24 02:29:19;;;;;;;3.45;1.83;;;;;;;18.24;72.39;99707.25;5051162;28;20055;-69
2022/08/24 02:31:45;;;;;;;5.50;2.50;;;;;;;18.24;72.58;99715.25;5051045;28;20049;-69
2022/08/24 02:34:14;;;;;;;3.78;2.13;;;;;;;18.19;72.77;99718.31;5050966;28;20132;-69
2022/08/24 02:36:41;;;;;;;5.95;2.20;;;;;;;18.18;72.93;99723.75;5053159;28;20179;-69
2022/08/24 02:39:08;;;;;;;2.60;1.70;;;;;;;18.19;73.00;99718.31;5053585;28;20535;-68
2022/08/24 02:41:36;;;;;;;3.40;2.40;;;;;;;18.19;72.67;99717.47;5049898;28;20140;-68
2022/08/24 02:44:04;;;;;;;2.83;1.80;;;;;;;18.17;72.88;99720.25;5050842;28;20451;-69
2022/08/24 02:46:31;;;;;;;6.95;2.40;;;;;;;18.13;72.60;99713.47;5050378;28;20041;-69
2022/08/24 02:48:58;;;;;;;4.00;2.15;;;;;;;18.08;73.15;99710.31;5051010;28;20064;-68
2022/08/24 02:51:29;;;;;;;2.10;1.60;;;;;;;18.12;73.18;99725.13;5050895;28;20492;-68
2022/08/24 02:53:56;;;;;;;5.13;2.00;;;;;;;18.09;73.42;99717.38;5054115;28;20409;-68
2022/08/24 02:56:23;;;;;;;4.32;1.83;;;;;;;18.09;72.89;99714.69;5054842;28;20423;-68
2022/08/24 02:58:50;;;;;;;5.45;2.20;;;;;;;18.22;74.04;99712.72;5051019;28;20063;-58
2022/08/24 03:01:17;;;;;;;3.20;2.05;;;;;;;18.37;72.80;99717.75;5050852;28;20132;-46
2022/08/24 03:03:44;;;;;;;3.13;1.95;;;;;;;18.48;71.94;99709.69;5050766;28;20053;-54
2022/08/24 03:06:10;;;;;;;3.00;1.98;;;;;;;18.51;71.67;99714.78;5049937;28;20057;-56
2022/08/24 03:08:38;;;;;;;4.15;2.42;;;;;;;18.52;71.71;99713.81;5050297;28;20045;-57
2022/08/24 03:11:07;;;;;;;4.72;1.88;;;;;;;18.49;71.34;99714.06;5050424;28;20055;-51
2022/08/24 03:13:34;;;;;;;3.40;1.60;;;;;;;18.47;71.75;99718.69;5050515;28;20045;-52
2022/08/24 03:16:01;;;;;;;6.30;2.00;;;;;;;18.53;71.50;99715.50;5049821;28;20057;-52
2022/08/24 03:18:28;;;;;;;2.97;1.50;;;;;;;18.56;71.07;99717.94;5050346;28;20416;-52
2022/08/24 03:20:55;;;;;;;2.63;1.90;;;;;;;18.60;70.76;99715.84;5050480;28;20049;-47
2022/08/24 03:23:22;;;;;;;3.65;1.90;;;;;;;18.62;70.67;99712.06;5050485;28;20056;-51
2022/08/24 03:25:50;;;;;;;4.70;1.73;;;;;;;18.60;70.77;99714.00;5049408;28;21148;-48
2022/08/24 03:28:17;;;;;;;3.63;1.98;;;;;;;18.53;71.09;99710.16;5050226;28;20056;-56
2022/08/24 03:30:44;;;;;;;3.42;1.92;;;;;;;18.52;70.97;99711.13;5050357;28;20059;-52
2022/08/24 03:33:11;;;;;;;2.30;1.80;;;;;;;18.53;71.36;99710.16;5049688;28;20045;-63
2022/08/24 03:35:38;;;;;;;9.00;2.65;;;;;;;18.47;71.38;99709.84;5049939;28;20568;-68
2022/08/24 03:38:05;;;;;;;4.57;2.03;;;;;;;18.36;71.54;99706.25;5049311;28;20053;-68
2022/08/24 03:40:32;;;;;;;3.63;1.70;;;;;;;18.27;71.66;99706.16;5049757;28;20053;-68
2022/08/24 03:43:01;;;;;;;4.10;1.90;;;;;;;18.20;72.24;99703.97;5049843;28;20080;-68
2022/08/24 03:45:29;;;;;;;3.72;1.95;;;;;;;18.14;72.61;99703.63;5049616;28;20515;-68
2022/08/24 03:47:56;;;;;;;2.42;1.98;;;;;;;18.08;72.68;99704.16;5049451;28;20080;-69
2022/08/24 03:50:24;;;;;;;3.65;1.95;;;;;;;18.05;72.89;99696.41;5049924;28;20053;-70
2022/08/24 03:52:51;;;;;;;2.13;1.60;;;;;;;17.99;72.91;99701.25;5049753;28;20467;-69
2022/08/24 03:55:19;;;;;;;2.60;1.90;;;;;;;17.96;73.28;99695.31;5049992;28;20057;-69
2022/08/24 03:57:45;;;;;;;2.25;2.03;;;;;;;17.95;73.02;99706.97;5048994;28;20496;-68
2022/08/24 04:00:14;;;;;;;3.53;1.95;;;;;;;17.93;73.50;99706.25;5049917;28;20057;-69
2022/08/24 04:02:43;;;;;;;4.35;1.88;;;;;;;17.91;73.35;99700.19;5049682;28;20053;-68
2022/08/24 04:05:11;;;;;;;3.85;2.33;;;;;;;17.93;73.36;99704.41;5049557;28;20053;-69
2022/08/24 04:07:37;;;;;;;7.32;2.20;;;;;;;17.91;73.35;99702.84;5048753;28;20049;-67
2022/08/24 04:10:04;;;;;;;3.78;2.08;;;;;;;17.91;73.49;99711.69;5049562;28;20052;-68
2022/08/24 04:12:31;;;;;;;3.15;2.25;;;;;;;17.89;73.51;99708.28;5049477;28;20053;-68
2022/08/24 04:14:58;;;;;;;3.35;2.08;;;;;;;17.86;73.60;99713.88;5049716;28;20048;-68
2022/08/24 04:17:25;;;;;;;2.60;1.80;;;;;;;17.85;73.88;99719.34;5048538;28;20053;-70
2022/08/24 04:19:58;;;;;;;2.65;2.00;;;;;;;17.83;73.71;99715.97;5049263;28;20056;-68
2022/08/24 04:22:25;;;;;;;5.72;2.05;;;;;;;17.77;73.93;99718.13;5049430;28;20045;-70
2022/08/24 04:24:52;;;;;;;4.43;2.28;;;;;;;17.76;74.33;99723.56;5048959;28;20049;-68
2022/08/24 04:27:19;;;;;;;4.82;1.75;;;;;;;17.77;74.16;99718.13;5048573;28;20125;-70
2022/08/24 04:29:45;;;;;;;2.50;1.90;;;;;;;17.79;74.23;99724.19;5061237;28;20051;-68
2022/08/24 04:32:14;;;;;;;2.42;1.80;;;;;;;17.75;74.16;99721.88;5069063;28;20059;-69
2022/08/24 04:34:42;;;;;;;5.82;2.30;;;;;;;17.73;74.35;99714.00;5050672;28;20048;-69
2022/08/24 04:37:09;;;;;;;3.17;2.13;;;;;;;17.72;74.23;99714.09;5048021;28;20504;-69
2022/08/24 04:39:35;;;;;;;4.35;2.50;;;;;;;17.71;74.18;99712.44;5048793;28;20040;-69
2022/08/24 04:42:02;;;;;;;3.03;1.90;;;;;;;17.70;74.71;99716.06;5048869;28;20490;-69
2022/08/24 04:44:28;;;;;;;7.85;1.95;;;;;;;17.69;74.33;99719.69;5048621;28;20088;-67
2022/08/24 04:46:55;;;;;;;5.18;2.10;;;;;;;17.69;74.59;99711.69;5052418;28;20044;-68
2022/08/24 04:49:22;;;;;;;2.75;1.92;;;;;;;17.67;74.51;99722.50;5069037;28;20416;-69
2022/08/24 04:51:50;;;;;;;3.03;1.83;;;;;;;17.66;74.84;99725.28;5068970;28;20436;-70
2022/08/24 04:54:17;;;;;;;3.72;1.90;;;;;;;17.65;74.81;99727.09;5068897;28;20052;-69
2022/08/24 04:56:44;;;;;;;4.70;2.00;;;;;;;17.65;74.99;99729.78;5068542;28;20067;-68
2022/08/24 04:59:10;;;;;;;3.95;2.20;;;;;;;17.65;74.69;99727.09;5068753;28;20052;-69
2022/08/24 05:01:37;;;;;;;2.92;2.03;;;;;;;17.68;74.97;99728.69;5068779;28;20048;-68
2022/08/24 05:04:04;;;;;;;2.30;1.90;;;;;;;17.69;74.88;99725.88;5069400;28;20135;-69
2022/08/24 05:06:32;;;;;;;3.20;2.08;;;;;;;17.72;75.13;99725.66;5072294;28;20496;-69
2022/08/24 05:09:01;;;;;;;7.80;2.30;;;;;;;17.73;75.04;99729.16;5068381;28;20044;-69
2022/08/24 05:11:28;;;;;;;4.80;2.58;;;;;;;17.74;74.99;99734.34;5052840;28;20063;-70
2022/08/24 05:13:56;;;;;;;5.22;2.47;;;;;;;17.74;75.10;99729.00;5052805;28;20045;-69
2022/08/24 05:16:25;;;;;;;3.70;2.30;;;;;;;17.81;74.89;99732.06;5051973;28;20044;-68
2022/08/24 05:18:52;;;;;;;6.38;2.15;;;;;;;17.88;74.52;99724.44;5053515;28;20139;-69
2022/08/24 05:21:20;;;;;;;4.95;2.65;;;;;;;17.92;74.00;99736.56;5053691;28;20510;-69
2022/08/24 05:23:47;;;;;;;3.60;2.15;;;;;;;17.94;74.00;99729.25;5052789;28;20252;-69
2022/08/24 05:26:17;;;;;;;4.45;2.35;;;;;;;17.98;74.04;99736.06;5051272;28;20056;-69
2022/08/24 05:28:45;;;;;;;4.43;3.20;;;;;;;18.02;73.87;99738.34;5052131;28;20121;-68
2022/08/24 05:31:13;;;;;;;6.63;2.83;;;;;;;18.08;74.07;99738.81;5052155;28;20048;-68
2022/08/24 05:33:40;;;;;;;4.78;2.28;;;;;;;18.14;73.42;99733.84;5048978;28;20053;-69
2022/08/24 05:36:16;;;;;;;9.02;2.78;;;;;;;18.18;73.55;99742.44;5051032;28;20572;-69
2022/08/24 05:38:44;;;;;;;4.50;2.65;;;;;;;18.18;73.75;99745.09;5033781;28;20049;-69
2022/08/24 05:41:10;;;;;;;3.67;2.30;;;;;;;18.21;73.89;99750.19;5032428;28;20053;-68
2022/08/24 05:43:38;;;;;;;6.53;2.60;;;;;;;18.27;73.73;99744.34;5032229;28;20562;-69
2022/08/24 05:46:05;;;;;;;5.88;2.55;;;;;;;18.33;73.61;99746.50;5046570;28;20539;-68
2022/08/24 05:48:33;;;;;;;5.32;2.28;;;;;;;18.36;73.75;99748.06;5052585;28;20059;-70
2022/08/24 05:51:00;;;;;;;5.78;3.13;;;;;;;18.41;73.62;99751.22;5051989;28;20088;-70
2022/08/24 05:53:26;;;;;;;3.28;2.17;;;;;;;18.49;73.42;99750.59;5052314;28;20264;-66
2022/08/24 05:55:53;;;;;;;4.18;2.35;;;;;;;18.56;73.43;99755.31;5051693;28;20056;-68
2022/08/24 05:58:20;;;;;;;12.48;3.08;;;;;;;18.63;73.38;99747.63;5052212;28;20060;-68
2022/08/24 06:00:49;;;;;;;4.82;2.08;;;;;;;18.72;73.31;99746.00;5052243;28;20102;-70
2022/08/24 06:03:16;;;;;;;4.97;2.72;;;;;;;18.86;73.09;99753.75;5052182;28;20136;-69
2022/08/24 06:05:46;;;;;;;4.53;2.22;;;;;;;18.98;72.38;99744.69;5051529;28;20045;-69
2022/08/24 06:08:12;;;;;;;5.75;1.98;;;;;;;19.11;72.13;99754.34;5051329;28;20057;-69
2022/08/24 06:10:41;;;;;;;5.95;2.53;;;;;;;19.22;71.60;99759.59;5051910;28;20060;-68
2022/08/24 06:13:08;;;;;;;9.98;3.05;;;;;;;19.29;71.62;99753.59;5051573;28;20656;-68
2022/08/24 06:15:35;;;;;;;7.55;2.35;;;;;;;19.40;71.45;99766.03;5051704;28;20059;-68
2022/08/24 06:18:04;;;;;;;9.70;3.40;;;;;;;19.53;71.11;99758.63;5050995;28;20692;-69
2022/08/24 06:20:31;;;;;;;8.45;3.60;;;;;;;19.63;70.90;99764.03;5051852;28;20143;-70
2022/08/24 06:22:58;;;;;;;11.25;3.08;;;;;;;19.71;70.81;99764.25;5051747;28;20053;-68
2022/08/24 06:28:09;;;;;;;4.05;2.10;;;;;;;19.99;70.16;99769.00;5051112;28;20750;-70
2022/08/24 06:30:36;;;;;;;4.40;2.78;;;;;;;20.13;69.70;99764.13;5051037;28;20077;-68
2022/08/24 06:33:05;;;;;;;5.25;2.60;;;;;;;20.25;69.27;99766.66;5051129;28;20102;-69
2022/08/24 06:35:32;;;;;;;5.53;2.17;;;;;;;20.37;68.95;99753.00;5051403;28;20148;-69
2022/08/24 06:37:58;;;;;;;8.82;3.25;;;;;;;20.47;69.04;99754.84;5050729;28;20076;-69
2022/08/24 06:40:25;;;;;;;6.70;3.40;;;;;;;20.54;69.17;99751.47;5051672;28;20053;-68
2022/08/24 06:42:52;;;;;;;5.90;3.05;;;;;;;20.65;69.02;99755.91;5052556;28;20144;-69
2022/08/24 06:45:20;;;;;;;5.90;2.97;;;;;;;20.80;68.61;99759.84;5052379;28;20529;-68
2022/08/24 06:47:47;;;;;;;4.63;2.47;;;;;;;20.94;68.74;99757.69;5050444;28;20880;-69
2022/08/24 06:50:15;;;;;;;6.10;2.20;;;;;;;21.10;68.40;99752.59;5051095;28;20055;-69
2022/08/24 06:52:41;;;;;;;3.35;2.47;;;;;;;21.26;68.02;99759.19;5051018;28;20060;-69
2022/08/24 06:55:09;;;;;;;2.83;1.92;;;;;;;21.38;66.56;99756.19;5050931;28;20053;-69
2022/08/24 06:57:36;;;;;;;4.53;2.95;;;;;;;21.53;66.14;99751.22;5050759;28;20056;-69
2022/08/24 07:00:05;;;;;;;11.77;3.08;;;;;;;21.67;65.84;99757.13;5050849;28;20139;-69
2022/08/24 07:02:31;;;;;;;4.47;2.80;;;;;;;21.80;64.39;99761.13;5051045;28;20053;-69
2022/08/24 07:04:58;;;;;;;4.70;2.67;;;;;;;21.96;62.81;99757.00;5051542;28;20047;-69
2022/08/24 07:07:26;;;;;;;8.90;3.25;;;;;;;22.15;62.63;99764.06;5054872;28;20044;-70
2022/08/24 07:09:53;;;;;;;4.45;2.67;;;;;;;22.42;61.98;99761.41;5048812;28;20135;-52
2022/08/24 07:12:19;;;;;;;10.77;4.28;;;;;;;22.77;59.95;99772.31;5049936;28;20051;-53
2022/08/24 07:14:46;;;;;;;6.40;4.07;;;;;;;23.03;60.91;99775.06;5040058;28;20045;-53
2022/08/24 07:17:12;;;;;;;7.03;3.42;;;;;;;23.29;59.11;99764.34;5029955;28;20045;-54
2022/08/24 07:19:39;;;;;;;9.43;4.90;;;;;;;23.48;58.10;99774.91;5030727;28;20049;-58
2022/08/24 07:22:06;;;;;;;7.38;3.42;;;;;;;23.70;57.12;99780.72;5030770;28;20052;-57
2022/08/24 07:24:33;;;;;;;6.72;3.08;;;;;;;23.92;56.78;99784.72;5030547;28;20054;-49
2022/08/24 07:27:00;;;;;;;7.30;3.30;;;;;;;24.11;55.93;99780.94;5045958;28;20039;-55
2022/08/24 07:29:27;;;;;;;5.97;3.15;;;;;;;24.25;56.10;99782.16;5050437;28;20049;-55
2022/08/24 07:31:53;;;;;;;12.20;5.43;;;;;;;24.33;55.36;99788.41;5050575;28;20404;-54
2022/08/24 07:34:20;;;;;;;8.55;3.03;;;;;;;24.46;54.43;99787.97;5050009;28;20614;-57
2022/08/24 07:36:47;;;;;;;9.65;3.58;;;;;;;24.56;54.56;99780.59;5048352;28;20144;-58
2022/08/24 07:39:13;;;;;;;9.45;3.58;;;;;;;24.66;53.95;99793.88;5050767;28;20049;-56
2022/08/24 07:41:43;;;;;;;15.80;3.75;;;;;;;24.69;54.13;99787.34;5048627;28;20783;-66
2022/08/24 07:44:11;;;;;;;6.65;3.30;;;;;;;24.85;52.93;99785.47;5050673;28;20052;-65
2022/08/24 07:46:39;;;;;;;8.40;3.03;;;;;;;25.01;53.19;99786.53;5049243;28;20045;-63
2022/08/24 07:49:06;;;;;;;6.05;3.55;;;;;;;25.28;51.78;99785.34;5050144;28;20063;-64
2022/08/24 07:51:33;;;;;;;6.45;2.47;;;;;;;25.34;51.49;99786.53;5050207;28;20637;-62
2022/08/24 07:54:02;;;;;;;6.00;2.58;;;;;;;25.55;50.82;99783.25;5050102;28;20043;-63
2022/08/24 07:56:28;;;;;;;5.22;2.83;;;;;;;25.70;49.06;99786.94;5048671;28;20045;-64
2022/08/24 07:58:56;;;;;;;9.68;2.67;;;;;;;25.83;48.43;99794.50;5050162;28;20504;-65
2022/08/24 08:01:24;;;;;;;9.88;2.70;;;;;;;25.91;48.40;99783.69;5050090;28;20051;-65
2022/08/24 08:03:50;;;;;;;6.55;2.90;;;;;;;26.01;48.45;99791.59;5049874;28;20053;-70
2022/08/24 08:06:18;;;;;;;7.13;2.55;;;;;;;26.23;47.85;99796.22;5049093;28;20044;-68
2022/08/24 08:08:45;;;;;;;4.95;2.10;;;;;;;26.26;47.95;99798.59;5048784;28;20144;-67
2022/08/24 08:11:12;;;;;;;4.35;2.60;;;;;;;26.33;47.62;99794.13;5049692;28;20068;-69
2022/08/24 08:13:39;;;;;;;5.82;2.05;;;;;;;26.46;45.60;99800.81;5049931;28;20064;-69
2022/08/24 08:16:07;;;;;;;4.60;2.38;;;;;;;26.43;45.62;99795.78;5048983;28;20428;-69
2022/08/24 08:18:34;;;;;;;6.70;2.25;;;;;;;26.57;45.10;99805.84;5048765;28;20059;-69
2022/08/24 08:21:02;;;;;;;6.07;2.53;;;;;;;26.67;45.47;99809.16;5049455;28;20475;-69
2022/08/24 08:26:22;;;;;;;7.43;3.60;;;;;;;26.77;45.66;99807.06;5011782;28;20049;-69
2022/08/24 08:28:48;;;;;;;9.60;3.03;;;;;;;26.77;44.80;99811.63;5049079;28;20127;-68
2022/08/24 08:31:16;;;;;;;6.35;3.30;;;;;;;26.81;44.67;99804.03;5049565;28;20139;-68
2022/08/24 08:33:43;;;;;;;9.10;3.00;;;;;;;26.84;45.14;99809.91;5048885;28;20057;-68
2022/08/24 08:36:13;;;;;;;7.78;3.15;;;;;;;26.97;43.96;99810.13;5065670;28;20049;-69
2022/08/24 08:38:41;;;;;;;6.38;2.83;;;;;;;27.17;44.36;99810.50;5067956;28;20513;-68
2022/08/24 08:41:37;;;;;;;7.70;3.00;;;;;;;27.26;42.95;99807.72;5068858;28;20059;-71
2022/08/24 08:44:13;;;;;;;9.95;3.17;;;;;;;27.48;42.67;99806.84;5069037;28;20492;-67
2022/08/24 08:47:01;;;;;;;9.30;2.58;;;;;;;27.56;42.33;99804.03;5068333;28;20175;-68
2022/08/24 08:49:54;;;;;;;6.90;2.58;;;;;;;27.68;42.32;99806.31;5069173;28;20051;-69
2022/08/24 08:53:00;;;;;;;6.80;2.58;;;;;;;27.89;41.08;99801.00;5065315;28;20813;-68
2022/08/24 08:55:33;;;;;;;7.25;3.25;;;;;;;27.92;41.38;99800.63;5053851;28;20499;-68
2022/08/24 08:58:11;;;;;;;6.20;2.58;;;;;;;27.91;41.37;99798.97;5068000;28;20040;-68
2022/08/24 09:00:50;;;;;;;10.23;3.50;;;;;;;27.95;41.30;99799.41;5069001;28;20102;-68
2022/08/24 09:03:36;;;;;;;3.92;2.42;;;;;;;28.05;40.66;99791.84;5069095;28;20053;-68
2022/08/24 09:06:35;;;;;;;8.27;2.63;;;;;;;28.24;40.14;99801.25;5064690;28;20127;-67
2022/08/24 09:09:31;;;;;;;6.20;2.33;;;;;;;28.32;39.79;99793.00;5017598;28;20052;-68
2022/08/24 09:12:08;;;;;;;4.75;2.45;;;;;;;28.52;38.36;99787.81;5049086;28;20546;-70
2022/08/24 09:14:56;;;;;;;5.82;2.45;;;;;;;28.64;38.42;99786.28;5047058;28;20087;-67
2022/08/24 09:17:40;;;;;;;7.32;2.45;;;;;;;28.68;38.17;99787.59;5047495;28;20147;-70
2022/08/24 09:20:25;;;;;;;6.27;3.10;;;;;;;28.66;38.53;99786.94;5042590;28;20072;-71
2022/08/24 09:22:59;;;;;;;;;;;;;;;28.85;38.15;99793.59;5049081;28;20147;-69
2022/08/24 09:25:32;;;;;;;5.88;2.58;;;;;;;29.26;37.06;99787.50;5048167;28;19921;-68
2022/08/24 09:28:26;;;;;;;5.50;2.58;;;;;;;30.32;35.82;99790.06;5047129;28;20067;-69
2022/08/24 09:31:17;;;;;;;6.53;3.38;;;;;;;31.70;33.63;99784.09;5048436;28;20048;-71
2022/08/24 09:33:56;;;;;;;4.88;2.50;;;;;;;32.17;32.33;99778.50;5025791;28;20420;-68
2022/08/24 09:36:40;;;;;;;9.40;2.88;;;;;;;31.67;32.67;99779.06;5047488;28;20049;-68
2022/08/24 09:39:16;;;;;;;7.23;2.17;;;;;;;31.43;33.40;99786.88;5048097;28;20059;-69
2022/08/24 09:42:28;;;;;;;4.72;2.83;;;;;;;31.61;32.76;99786.22;5044537;28;20284;-71
2022/08/24 09:45:14;;;;;;;14.88;3.45;;;;;;;32.16;32.21;99780.41;5048401;28;20508;-72
2022/08/24 09:48:16;;;;;;;6.28;1.88;;;;;;;32.34;31.96;99785.13;5033361;28;20045;-69
2022/08/24 09:51:18;;;;;;;7.95;3.03;;;;;;;32.51;31.58;99774.56;5051283;28;20049;-70
2022/08/24 09:54:18;;;;;;;6.13;3.17;;;;;;;33.48;30.10;99775.09;4988166;28;20045;-73
2022/08/24 09:57:02;;;;;;;9.73;3.63;;;;;;;33.89;29.07;99770.03;5056147;28;20057;-71
2022/08/24 09:59:54;;;;;;;9.90;3.30;;;;;;;34.21;28.30;99768.00;5055145;28;20140;-70
2022/08/24 10:02:39;;;;;;;5.93;3.10;;;;;;;34.75;27.81;99768.91;5048637;28;20560;-69
2022/08/24 10:05:18;;;;;;;4.75;2.70;;;;;;;35.00;27.83;99765.16;5051672;28;20419;-72
2022/08/24 10:07:55;;;;;;;6.63;2.85;;;;;;;35.15;27.57;99753.75;5035538;28;20087;-71
2022/08/24 10:10:32;;;;;;;10.05;3.22;;;;;;;35.36;27.02;99760.56;5051466;28;20751;-68
2022/08/24 10:13:09;;;;;;;8.98;2.65;;;;;;;34.74;27.82;99755.47;5051524;28;20045;-70
2022/08/24 10:15:44;;;;;;;13.52;3.35;;;;;;;34.11;28.73;99754.84;5051298;28;20044;-69
2022/08/24 10:18:25;;;;;;;9.63;2.70;;;;;;;33.45;29.68;99750.97;5050972;28;20459;-71
2022/08/24 10:21:12;;;;;;;7.80;3.83;;;;;;;32.78;30.97;99747.09;5051465;28;20049;-71
2022/08/24 10:23:53;;;;;;;11.68;3.13;;;;;;;31.90;31.97;99756.78;5035667;28;20045;-71
2022/08/24 10:26:30;;;;;;;11.38;3.40;;;;;;;31.31;32.72;99744.94;5050146;28;20136;-69
2022/08/24 10:29:17;;;;;;;8.05;3.08;;;;;;;31.08;33.12;99747.25;5045699;28;20587;-71
2022/08/24 10:32:07;;;;;;;10.68;3.30;;;;;;;31.73;32.17;99744.69;5035954;28;20055;-72
2022/08/24 10:34:49;;;;;;;12.88;4.50;;;;;;;32.47;31.51;99746.88;5051282;28;20049;-70
2022/08/24 10:37:49;;;;;;;8.60;3.40;;;;;;;32.15;31.73;99743.28;5050078;28;20136;-71
2022/08/24 10:40:39;;;;;;;10.82;2.67;;;;;;;32.16;31.48;99744.09;5050801;28;20055;-71
2022/08/24 10:43:35;;;;;;;8.82;3.53;;;;;;;32.71;30.74;99736.22;5046096;28;20398;-71
2022/08/24 10:46:49;;;;;;;12.77;2.83;;;;;;;33.24;30.20;99741.28;5061370;28;20056;-72
2022/08/24 10:49:51;;;;;;;10.85;3.05;;;;;;;33.41;29.33;99732.50;5015111;28;20049;-72
2022/08/24 10:52:55;;;;;;;9.45;3.75;;;;;;;33.24;30.30;99730.34;5050552;28;20049;-70
2022/08/24 10:55:25;;;;;;;6.65;2.95;;;;;;;32.53;30.90;99728.78;5050661;28;20051;-70
2022/08/24 10:58:06;;;;;;;8.40;3.35;;;;;;;32.01;31.61;99730.75;5049991;28;20045;-72
2022/08/24 11:00:35;;;;;;;10.57;3.60;;;;;;;31.49;32.08;99722.50;5050526;28;20082;-70
2022/08/24 11:03:08;;;;;;;14.35;3.70;;;;;;;31.65;32.68;99724.78;5049483;28;20053;-69
2022/08/24 11:05:39;;;;;;;15.47;3.20;;;;;;;31.67;32.71;99727.28;5050345;28;20059;-69
2022/08/24 11:08:07;;;;;;;9.73;2.20;;;;;;;31.65;32.68;99715.75;5049537;28;20047;-69
2022/08/24 11:10:36;;;;;;;8.38;2.78;;;;;;;31.71;33.09;99731.25;5050116;28;20049;-70
2022/08/24 11:13:19;;;;;;;9.20;2.95;;;;;;;31.69;33.28;99727.91;5050291;28;20052;-72
2022/08/24 11:15:50;;;;;;;11.10;3.17;;;;;;;31.38;32.47;99721.25;5034920;28;20518;-68
2022/08/24 11:18:17;;;;;;;7.38;3.72;;;;;;;31.42;33.09;99718.97;5055742;28;20471;-68
2022/08/24 11:20:46;;;;;;;12.48;3.63;;;;;;;31.45;32.66;99721.25;5050286;28;20882;-68
2022/08/24 11:23:17;;;;;;;7.97;2.67;;;;;;;31.28;32.42;99715.38;5050251;28;20045;-69
2022/08/24 11:25:54;;;;;;;9.57;2.72;;;;;;;31.14;32.37;99708.31;5049466;28;20504;-70
2022/08/24 11:28:29;;;;;;;14.43;2.55;;;;;;;31.28;32.71;99706.38;5049325;28;20040;-69
2022/08/24 11:30:57;;;;;;;;;;;;;;;31.44;32.92;99701.34;5050587;28;20057;-68
2022/08/24 11:33:28;;;;;;;9.07;2.88;;;;;;;31.65;32.59;99707.56;5049917;28;19927;-68
2022/08/24 11:35:55;;;;;;;7.10;2.60;;;;;;;31.63;32.88;99705.06;5050468;28;20135;-71
2022/08/24 11:38:26;;;;;;;4.05;2.03;;;;;;;31.65;32.21;99699.38;5051243;28;20048;-70
2022/08/24 11:40:56;;;;;;;11.60;3.72;;;;;;;31.32;32.01;99697.56;5054711;28;20077;-69
2022/08/24 11:43:42;;;;;;;6.25;2.60;;;;;;;31.38;32.14;99698.59;5054425;28;20053;-68
2022/08/24 11:46:20;;;;;;;10.13;4.82;;;;;;;31.25;32.28;99694.03;5052221;28;20103;-69
2022/08/24 11:48:58;;;;;;;7.13;2.95;;;;;;;31.27;32.34;99694.66;5050812;28;20124;-69
2022/08/24 11:51:34;;;;;;;17.13;11.70;;;;;;;31.31;32.26;99693.19;5051359;28;20052;-70
2022/08/24 11:54:10;;;;;;;9.30;3.55;;;;;;;31.29;32.06;99689.00;5051632;28;20049;-71
2022/08/24 11:56:43;;;;;;;10.35;5.03;;;;;;;31.39;31.78;99692.97;5049745;28;20075;-70
2022/08/24 11:59:18;;;;;;;12.85;3.63;;;;;;;31.14;31.91;99686.53;5051159;28;20056;-71
2022/08/24 12:01:51;;;;;;;10.75;3.30;;;;;;;31.03;32.35;99688.81;5034247;28;20044;-71